Airport View

Enter AWOS ICAO identifier for current METAR.

ex. KFNL

K11R 051255Z AUTO 23003KT 10SM CLR 26/24 A3001 RMK AO2 T02600240

5 Aug 2020 13:01

Frequency: 121.125

Phone: 979-836-2303

Other Area AWOS: KCLL - KRWV - KCFD - KGYB

TAF KCLL 051128Z 0512/0612 18006KT P6SM FEW060 FM051500 20006KT P6SM SCT040 FM060000 15007KT P6SM BKN250